sensor_id;sensor_type;location;lat;lon;timestamp;P1;durP1;ratioP1;P2;durP2;ratioP2
7142;SDS011;3613;48.902;9.204;2023-01-09T00:01:47;9.57;;;7.63;;
7142;SDS011;3613;48.902;9.204;2023-01-09T00:04:18;10.73;;;7.67;;
7142;SDS011;3613;48.902;9.204;2023-01-09T00:06:44;9.27;;;7.13;;
7142;SDS011;3613;48.902;9.204;2023-01-09T00:09:17;9.53;;;7.57;;
7142;SDS011;3613;48.902;9.204;2023-01-09T00:11:47;11.30;;;8.20;;
7142;SDS011;3613;48.902;9.204;2023-01-09T00:14:14;11.33;;;7.57;;
7142;SDS011;3613;48.902;9.204;2023-01-09T00:16:43;9.73;;;7.20;;
7142;SDS011;3613;48.902;9.204;2023-01-09T00:19:08;11.17;;;7.73;;
7142;SDS011;3613;48.902;9.204;2023-01-09T00:21:37;9.83;;;7.07;;
7142;SDS011;3613;48.902;9.204;2023-01-09T00:24:07;10.53;;;7.77;;
7142;SDS011;3613;48.902;9.204;2023-01-09T00:26:33;10.97;;;7.30;;
7142;SDS011;3613;48.902;9.204;2023-01-09T00:28:59;10.47;;;7.27;;
7142;SDS011;3613;48.902;9.204;2023-01-09T00:31:25;8.93;;;6.80;;
7142;SDS011;3613;48.902;9.204;2023-01-09T00:36:19;9.17;;;6.53;;
7142;SDS011;3613;48.902;9.204;2023-01-09T00:38:44;8.10;;;6.40;;
7142;SDS011;3613;48.902;9.204;2023-01-09T00:41:13;7.27;;;5.93;;
7142;SDS011;3613;48.902;9.204;2023-01-09T00:43:43;8.53;;;5.93;;
7142;SDS011;3613;48.902;9.204;2023-01-09T00:46:14;8.10;;;6.13;;
7142;SDS011;3613;48.902;9.204;2023-01-09T00:48:44;7.77;;;6.20;;
7142;SDS011;3613;48.902;9.204;2023-01-09T00:51:13;7.43;;;5.90;;
7142;SDS011;3613;48.902;9.204;2023-01-09T00:53:42;8.63;;;6.77;;
7142;SDS011;3613;48.902;9.204;2023-01-09T00:56:10;6.93;;;5.77;;
7142;SDS011;3613;48.902;9.204;2023-01-09T00:58:39;7.70;;;5.77;;
7142;SDS011;3613;48.902;9.204;2023-01-09T01:01:07;8.40;;;6.07;;
7142;SDS011;3613;48.902;9.204;2023-01-09T01:03:33;9.33;;;6.63;;
7142;SDS011;3613;48.902;9.204;2023-01-09T01:05:59;7.40;;;5.53;;
7142;SDS011;3613;48.902;9.204;2023-01-09T01:08:46;7.37;;;5.17;;
7142;SDS011;3613;48.902;9.204;2023-01-09T01:11:11;6.93;;;5.30;;
7142;SDS011;3613;48.902;9.204;2023-01-09T01:13:38;6.50;;;4.40;;
7142;SDS011;3613;48.902;9.204;2023-01-09T01:16:10;4.40;;;3.63;;
7142;SDS011;3613;48.902;9.204;2023-01-09T01:18:37;4.10;;;3.60;;
7142;SDS011;3613;48.902;9.204;2023-01-09T01:21:09;3.97;;;3.03;;
7142;SDS011;3613;48.902;9.204;2023-01-09T01:23:36;3.77;;;2.97;;
7142;SDS011;3613;48.902;9.204;2023-01-09T01:26:05;4.33;;;3.07;;
7142;SDS011;3613;48.902;9.204;2023-01-09T01:28:35;2.70;;;2.37;;
7142;SDS011;3613;48.902;9.204;2023-01-09T01:31:01;2.27;;;1.70;;
7142;SDS011;3613;48.902;9.204;2023-01-09T01:33:27;1.73;;;1.60;;
7142;SDS011;3613;48.902;9.204;2023-01-09T01:36:03;1.70;;;1.60;;
7142;SDS011;3613;48.902;9.204;2023-01-09T01:38:30;1.50;;;1.40;;
7142;SDS011;3613;48.902;9.204;2023-01-09T01:40:57;1.80;;;1.53;;
7142;SDS011;3613;48.902;9.204;2023-01-09T01:43:23;1.50;;;1.40;;
7142;SDS011;3613;48.902;9.204;2023-01-09T01:45:48;1.40;;;1.30;;
7142;SDS011;3613;48.902;9.204;2023-01-09T01:48:15;1.60;;;1.50;;
7142;SDS011;3613;48.902;9.204;2023-01-09T01:50:47;1.30;;;1.20;;
7142;SDS011;3613;48.902;9.204;2023-01-09T01:53:22;1.53;;;1.27;;
7142;SDS011;3613;48.902;9.204;2023-01-09T01:56:03;1.50;;;1.40;;
7142;SDS011;3613;48.902;9.204;2023-01-09T01:58:51;1.23;;;1.13;;
7142;SDS011;3613;48.902;9.204;2023-01-09T02:01:37;3.47;;;1.20;;
7142;SDS011;3613;48.902;9.204;2023-01-09T02:04:06;1.30;;;1.20;;
7142;SDS011;3613;48.902;9.204;2023-01-09T02:06:35;1.40;;;1.30;;
7142;SDS011;3613;48.902;9.204;2023-01-09T02:09:02;1.37;;;1.27;;
7142;SDS011;3613;48.902;9.204;2023-01-09T02:11:42;1.27;;;1.17;;
7142;SDS011;3613;48.902;9.204;2023-01-09T02:14:09;1.67;;;1.20;;
7142;SDS011;3613;48.902;9.204;2023-01-09T02:22:15;1.33;;;1.20;;
7142;SDS011;3613;48.902;9.204;2023-01-09T02:30:30;2.37;;;1.47;;
7142;SDS011;3613;48.902;9.204;2023-01-09T02:41:10;1.50;;;1.40;;
7142;SDS011;3613;48.902;9.204;2023-01-09T02:43:43;1.40;;;1.20;;
7142;SDS011;3613;48.902;9.204;2023-01-09T02:46:18;1.60;;;1.23;;
7142;SDS011;3613;48.902;9.204;2023-01-09T02:48:48;2.50;;;1.13;;
7142;SDS011;3613;48.902;9.204;2023-01-09T02:51:22;2.77;;;1.20;;
7142;SDS011;3613;48.902;9.204;2023-01-09T03:07:30;1.53;;;1.30;;
7142;SDS011;3613;48.902;9.204;2023-01-09T03:09:55;1.27;;;1.20;;
7142;SDS011;3613;48.902;9.204;2023-01-09T03:12:29;1.10;;;1.03;;
7142;SDS011;3613;48.902;9.204;2023-01-09T03:14:57;1.20;;;1.10;;
7142;SDS011;3613;48.902;9.204;2023-01-09T03:17:28;3.53;;;1.10;;
7142;SDS011;3613;48.902;9.204;2023-01-09T03:19:59;1.50;;;1.00;;
7142;SDS011;3613;48.902;9.204;2023-01-09T03:22:31;1.23;;;1.00;;
7142;SDS011;3613;48.902;9.204;2023-01-09T03:24:59;1.03;;;0.93;;
7142;SDS011;3613;48.902;9.204;2023-01-09T03:27:25;0.90;;;0.90;;
7142;SDS011;3613;48.902;9.204;2023-01-09T03:29:53;1.00;;;1.00;;
7142;SDS011;3613;48.902;9.204;2023-01-09T03:32:21;1.00;;;1.00;;
7142;SDS011;3613;48.902;9.204;2023-01-09T03:34:47;1.00;;;0.90;;
7142;SDS011;3613;48.902;9.204;2023-01-09T03:37:13;1.17;;;1.10;;
7142;SDS011;3613;48.902;9.204;2023-01-09T03:39:39;0.80;;;0.80;;
7142;SDS011;3613;48.902;9.204;2023-01-09T03:42:04;0.90;;;0.90;;
7142;SDS011;3613;48.902;9.204;2023-01-09T03:44:30;1.00;;;1.00;;
7142;SDS011;3613;48.902;9.204;2023-01-09T03:46:55;0.87;;;0.87;;
7142;SDS011;3613;48.902;9.204;2023-01-09T03:49:21;0.90;;;0.90;;
7142;SDS011;3613;48.902;9.204;2023-01-09T03:51:47;0.90;;;0.90;;
7142;SDS011;3613;48.902;9.204;2023-01-09T03:54:12;1.80;;;1.00;;
7142;SDS011;3613;48.902;9.204;2023-01-09T03:56:38;2.13;;;1.10;;
7142;SDS011;3613;48.902;9.204;2023-01-09T03:59:06;1.23;;;0.90;;
7142;SDS011;3613;48.902;9.204;2023-01-09T04:01:31;0.90;;;0.90;;
7142;SDS011;3613;48.902;9.204;2023-01-09T04:03:57;0.80;;;0.80;;
7142;SDS011;3613;48.902;9.204;2023-01-09T04:06:23;0.80;;;0.80;;
7142;SDS011;3613;48.902;9.204;2023-01-09T04:08:48;0.80;;;0.80;;
7142;SDS011;3613;48.902;9.204;2023-01-09T04:11:14;0.80;;;0.80;;
7142;SDS011;3613;48.902;9.204;2023-01-09T04:13:42;1.13;;;1.00;;
7142;SDS011;3613;48.902;9.204;2023-01-09T04:16:08;0.77;;;0.77;;
7142;SDS011;3613;48.902;9.204;2023-01-09T04:18:34;1.00;;;0.70;;
7142;SDS011;3613;48.902;9.204;2023-01-09T04:21:00;0.70;;;0.70;;
7142;SDS011;3613;48.902;9.204;2023-01-09T04:23:25;1.47;;;0.90;;
7142;SDS011;3613;48.902;9.204;2023-01-09T04:25:51;1.93;;;0.90;;
7142;SDS011;3613;48.902;9.204;2023-01-09T04:28:17;0.83;;;0.80;;
7142;SDS011;3613;48.902;9.204;2023-01-09T04:30:42;0.60;;;0.60;;
7142;SDS011;3613;48.902;9.204;2023-01-09T04:33:08;0.97;;;0.80;;
7142;SDS011;3613;48.902;9.204;2023-01-09T04:35:34;0.80;;;0.80;;
7142;SDS011;3613;48.902;9.204;2023-01-09T04:38:01;0.70;;;0.70;;
7142;SDS011;3613;48.902;9.204;2023-01-09T04:40:27;0.70;;;0.70;;
7142;SDS011;3613;48.902;9.204;2023-01-09T04:42:53;0.80;;;0.70;;
7142;SDS011;3613;48.902;9.204;2023-01-09T04:45:20;0.93;;;0.80;;
7142;SDS011;3613;48.902;9.204;2023-01-09T04:47:46;1.17;;;0.87;;
7142;SDS011;3613;48.902;9.204;2023-01-09T04:50:12;0.80;;;0.80;;
7142;SDS011;3613;48.902;9.204;2023-01-09T04:52:38;0.80;;;0.80;;
7142;SDS011;3613;48.902;9.204;2023-01-09T04:55:04;0.83;;;0.80;;
7142;SDS011;3613;48.902;9.204;2023-01-09T04:57:31;0.90;;;0.90;;
7142;SDS011;3613;48.902;9.204;2023-01-09T04:59:57;0.70;;;0.70;;
7142;SDS011;3613;48.902;9.204;2023-01-09T05:02:22;1.23;;;1.13;;
7142;SDS011;3613;48.902;9.204;2023-01-09T05:04:48;2.33;;;0.97;;
7142;SDS011;3613;48.902;9.204;2023-01-09T05:07:13;0.70;;;0.70;;
7142;SDS011;3613;48.902;9.204;2023-01-09T05:09:39;0.80;;;0.80;;
7142;SDS011;3613;48.902;9.204;2023-01-09T05:12:05;1.80;;;0.90;;
7142;SDS011;3613;48.902;9.204;2023-01-09T05:14:35;2.13;;;1.10;;
7142;SDS011;3613;48.902;9.204;2023-01-09T05:17:03;1.33;;;1.00;;
7142;SDS011;3613;48.902;9.204;2023-01-09T05:19:28;1.17;;;1.00;;
7142;SDS011;3613;48.902;9.204;2023-01-09T05:21:54;2.60;;;1.10;;
7142;SDS011;3613;48.902;9.204;2023-01-09T05:24:20;1.20;;;0.90;;
7142;SDS011;3613;48.902;9.204;2023-01-09T05:26:45;1.97;;;1.20;;
7142;SDS011;3613;48.902;9.204;2023-01-09T05:29:11;1.40;;;1.00;;
7142;SDS011;3613;48.902;9.204;2023-01-09T05:31:36;2.27;;;1.30;;
7142;SDS011;3613;48.902;9.204;2023-01-09T05:34:02;2.17;;;1.30;;
7142;SDS011;3613;48.902;9.204;2023-01-09T05:36:30;1.73;;;1.03;;
7142;SDS011;3613;48.902;9.204;2023-01-09T05:38:56;1.37;;;1.10;;
7142;SDS011;3613;48.902;9.204;2023-01-09T05:41:22;1.90;;;1.00;;
7142;SDS011;3613;48.902;9.204;2023-01-09T05:43:50;1.37;;;0.97;;
7142;SDS011;3613;48.902;9.204;2023-01-09T05:46:16;1.63;;;1.10;;
7142;SDS011;3613;48.902;9.204;2023-01-09T05:48:42;3.50;;;1.30;;
7142;SDS011;3613;48.902;9.204;2023-01-09T05:51:11;2.57;;;1.20;;
7142;SDS011;3613;48.902;9.204;2023-01-09T05:53:39;1.70;;;1.20;;
7142;SDS011;3613;48.902;9.204;2023-01-09T05:56:04;1.70;;;1.20;;
7142;SDS011;3613;48.902;9.204;2023-01-09T05:58:33;1.63;;;1.50;;
7142;SDS011;3613;48.902;9.204;2023-01-09T06:01:01;1.17;;;1.00;;
7142;SDS011;3613;48.902;9.204;2023-01-09T06:03:27;2.20;;;1.20;;
7142;SDS011;3613;48.902;9.204;2023-01-09T06:05:52;2.23;;;1.70;;
7142;SDS011;3613;48.902;9.204;2023-01-09T06:08:18;4.27;;;1.60;;
7142;SDS011;3613;48.902;9.204;2023-01-09T06:10:44;2.73;;;1.30;;
7142;SDS011;3613;48.902;9.204;2023-01-09T06:13:10;1.73;;;1.10;;
7142;SDS011;3613;48.902;9.204;2023-01-09T06:15:36;1.83;;;1.10;;
7142;SDS011;3613;48.902;9.204;2023-01-09T06:18:04;2.77;;;1.50;;
7142;SDS011;3613;48.902;9.204;2023-01-09T06:20:30;2.87;;;1.30;;
7142;SDS011;3613;48.902;9.204;2023-01-09T06:22:55;2.77;;;1.70;;
7142;SDS011;3613;48.902;9.204;2023-01-09T06:25:21;1.87;;;1.27;;
7142;SDS011;3613;48.902;9.204;2023-01-09T06:27:47;3.57;;;1.57;;
7142;SDS011;3613;48.902;9.204;2023-01-09T06:30:13;2.60;;;1.40;;
7142;SDS011;3613;48.902;9.204;2023-01-09T06:32:39;3.60;;;1.10;;
7142;SDS011;3613;48.902;9.204;2023-01-09T06:35:05;2.57;;;1.20;;
7142;SDS011;3613;48.902;9.204;2023-01-09T06:37:33;2.53;;;1.20;;
7142;SDS011;3613;48.902;9.204;2023-01-09T06:40:01;2.70;;;1.40;;
7142;SDS011;3613;48.902;9.204;2023-01-09T06:42:27;1.10;;;1.03;;
7142;SDS011;3613;48.902;9.204;2023-01-09T06:44:53;1.67;;;1.10;;
7142;SDS011;3613;48.902;9.204;2023-01-09T06:47:18;2.37;;;1.20;;
7142;SDS011;3613;48.902;9.204;2023-01-09T06:49:44;3.23;;;1.40;;
7142;SDS011;3613;48.902;9.204;2023-01-09T06:52:12;1.40;;;1.20;;
7142;SDS011;3613;48.902;9.204;2023-01-09T06:54:40;2.67;;;1.20;;
7142;SDS011;3613;48.902;9.204;2023-01-09T06:57:05;2.90;;;1.47;;
7142;SDS011;3613;48.902;9.204;2023-01-09T06:59:33;4.67;;;1.50;;
7142;SDS011;3613;48.902;9.204;2023-01-09T07:01:59;3.10;;;1.50;;
7142;SDS011;3613;48.902;9.204;2023-01-09T07:04:27;2.10;;;1.30;;
7142;SDS011;3613;48.902;9.204;2023-01-09T07:06:55;2.60;;;1.30;;
7142;SDS011;3613;48.902;9.204;2023-01-09T07:09:21;2.70;;;1.60;;
7142;SDS011;3613;48.902;9.204;2023-01-09T07:11:48;1.93;;;1.17;;
7142;SDS011;3613;48.902;9.204;2023-01-09T07:14:14;2.97;;;1.30;;
7142;SDS011;3613;48.902;9.204;2023-01-09T07:16:42;3.30;;;1.33;;
7142;SDS011;3613;48.902;9.204;2023-01-09T07:19:12;3.97;;;1.50;;
7142;SDS011;3613;48.902;9.204;2023-01-09T07:21:37;1.93;;;1.33;;
7142;SDS011;3613;48.902;9.204;2023-01-09T07:24:03;5.13;;;2.10;;
7142;SDS011;3613;48.902;9.204;2023-01-09T07:26:28;2.47;;;1.10;;
7142;SDS011;3613;48.902;9.204;2023-01-09T07:28:57;2.13;;;1.30;;
7142;SDS011;3613;48.902;9.204;2023-01-09T07:31:24;1.50;;;1.20;;
7142;SDS011;3613;48.902;9.204;2023-01-09T07:33:50;2.03;;;1.20;;
7142;SDS011;3613;48.902;9.204;2023-01-09T07:36:18;5.43;;;1.50;;
7142;SDS011;3613;48.902;9.204;2023-01-09T07:38:44;3.47;;;1.30;;
7142;SDS011;3613;48.902;9.204;2023-01-09T07:41:14;2.87;;;1.30;;
7142;SDS011;3613;48.902;9.204;2023-01-09T07:43:40;3.73;;;1.23;;
7142;SDS011;3613;48.902;9.204;2023-01-09T07:46:06;2.27;;;1.40;;
7142;SDS011;3613;48.902;9.204;2023-01-09T07:48:33;2.93;;;1.23;;
7142;SDS011;3613;48.902;9.204;2023-01-09T07:50:59;4.70;;;2.00;;
7142;SDS011;3613;48.902;9.204;2023-01-09T07:53:24;3.57;;;1.53;;
7142;SDS011;3613;48.902;9.204;2023-01-09T07:55:50;1.10;;;1.00;;
7142;SDS011;3613;48.902;9.204;2023-01-09T07:58:16;5.20;;;1.20;;
7142;SDS011;3613;48.902;9.204;2023-01-09T08:00:41;2.83;;;1.13;;
7142;SDS011;3613;48.902;9.204;2023-01-09T08:03:07;1.13;;;0.93;;
7142;SDS011;3613;48.902;9.204;2023-01-09T08:05:33;4.07;;;1.33;;
7142;SDS011;3613;48.902;9.204;2023-01-09T08:07:58;1.90;;;1.10;;
7142;SDS011;3613;48.902;9.204;2023-01-09T08:10:25;1.60;;;1.27;;
7142;SDS011;3613;48.902;9.204;2023-01-09T08:12:51;1.93;;;1.30;;
7142;SDS011;3613;48.902;9.204;2023-01-09T08:15:19;1.20;;;1.10;;
7142;SDS011;3613;48.902;9.204;2023-01-09T08:17:45;2.47;;;1.40;;
7142;SDS011;3613;48.902;9.204;2023-01-09T08:20:11;3.07;;;1.77;;
7142;SDS011;3613;48.902;9.204;2023-01-09T08:22:42;4.37;;;1.60;;
7142;SDS011;3613;48.902;9.204;2023-01-09T08:25:13;4.37;;;1.30;;
7142;SDS011;3613;48.902;9.204;2023-01-09T08:27:39;2.40;;;1.10;;
7142;SDS011;3613;48.902;9.204;2023-01-09T08:30:05;2.93;;;1.60;;
7142;SDS011;3613;48.902;9.204;2023-01-09T08:32:33;1.80;;;1.23;;
7142;SDS011;3613;48.902;9.204;2023-01-09T08:34:59;3.00;;;1.20;;
7142;SDS011;3613;48.902;9.204;2023-01-09T08:37:28;2.77;;;1.40;;
7142;SDS011;3613;48.902;9.204;2023-01-09T08:39:53;1.40;;;1.10;;
7142;SDS011;3613;48.902;9.204;2023-01-09T08:42:19;4.47;;;1.73;;
7142;SDS011;3613;48.902;9.204;2023-01-09T08:45:03;3.83;;;1.40;;
7142;SDS011;3613;48.902;9.204;2023-01-09T08:47:48;4.00;;;1.33;;
7142;SDS011;3613;48.902;9.204;2023-01-09T08:50:13;2.73;;;1.20;;
7142;SDS011;3613;48.902;9.204;2023-01-09T08:52:41;2.97;;;1.40;;
7142;SDS011;3613;48.902;9.204;2023-01-09T08:55:07;3.03;;;1.30;;
7142;SDS011;3613;48.902;9.204;2023-01-09T08:57:33;2.63;;;1.10;;
7142;SDS011;3613;48.902;9.204;2023-01-09T08:59:58;1.10;;;1.00;;
7142;SDS011;3613;48.902;9.204;2023-01-09T09:02:24;1.40;;;1.20;;
7142;SDS011;3613;48.902;9.204;2023-01-09T09:04:49;3.43;;;1.60;;
7142;SDS011;3613;48.902;9.204;2023-01-09T09:07:19;2.80;;;1.20;;
7142;SDS011;3613;48.902;9.204;2023-01-09T09:09:51;3.07;;;1.27;;
7142;SDS011;3613;48.902;9.204;2023-01-09T09:12:17;1.97;;;1.10;;
7142;SDS011;3613;48.902;9.204;2023-01-09T09:14:43;1.77;;;1.23;;
7142;SDS011;3613;48.902;9.204;2023-01-09T09:17:27;5.40;;;1.17;;
7142;SDS011;3613;48.902;9.204;2023-01-09T09:19:53;2.07;;;1.00;;
7142;SDS011;3613;48.902;9.204;2023-01-09T09:22:20;2.60;;;1.47;;
7142;SDS011;3613;48.902;9.204;2023-01-09T09:24:46;3.77;;;1.20;;
7142;SDS011;3613;48.902;9.204;2023-01-09T09:27:14;4.23;;;1.57;;
7142;SDS011;3613;48.902;9.204;2023-01-09T09:29:39;1.70;;;1.17;;
7142;SDS011;3613;48.902;9.204;2023-01-09T09:32:05;3.97;;;1.10;;
7142;SDS011;3613;48.902;9.204;2023-01-09T09:34:31;3.00;;;1.00;;
7142;SDS011;3613;48.902;9.204;2023-01-09T09:36:58;3.80;;;1.60;;
7142;SDS011;3613;48.902;9.204;2023-01-09T09:39:24;5.03;;;1.20;;
7142;SDS011;3613;48.902;9.204;2023-01-09T09:50:19;3.03;;;1.10;;
7142;SDS011;3613;48.902;9.204;2023-01-09T09:55:39;2.13;;;1.00;;
7142;SDS011;3613;48.902;9.204;2023-01-09T09:58:09;2.80;;;1.23;;
7142;SDS011;3613;48.902;9.204;2023-01-09T10:00:36;1.90;;;1.00;;
7142;SDS011;3613;48.902;9.204;2023-01-09T10:03:02;2.73;;;1.10;;
7142;SDS011;3613;48.902;9.204;2023-01-09T10:05:33;2.90;;;1.47;;
7142;SDS011;3613;48.902;9.204;2023-01-09T10:11:02;2.27;;;1.10;;
7142;SDS011;3613;48.902;9.204;2023-01-09T10:13:32;2.50;;;1.30;;
7142;SDS011;3613;48.902;9.204;2023-01-09T10:16:30;3.27;;;1.20;;
7142;SDS011;3613;48.902;9.204;2023-01-09T10:28:58;3.10;;;1.20;;
7142;SDS011;3613;48.902;9.204;2023-01-09T10:38:39;6.50;;;1.53;;
7142;SDS011;3613;48.902;9.204;2023-01-09T10:43:50;2.97;;;1.20;;
7142;SDS011;3613;48.902;9.204;2023-01-09T10:46:22;3.33;;;1.03;;
7142;SDS011;3613;48.902;9.204;2023-01-09T10:48:57;5.40;;;1.20;;
7142;SDS011;3613;48.902;9.204;2023-01-09T10:51:26;4.80;;;1.50;;
7142;SDS011;3613;48.902;9.204;2023-01-09T10:53:57;4.40;;;1.30;;
7142;SDS011;3613;48.902;9.204;2023-01-09T10:56:24;5.47;;;1.30;;
7142;SDS011;3613;48.902;9.204;2023-01-09T10:58:53;3.97;;;1.67;;
7142;SDS011;3613;48.902;9.204;2023-01-09T11:01:26;2.30;;;1.20;;
7142;SDS011;3613;48.902;9.204;2023-01-09T11:03:54;2.47;;;1.30;;
7142;SDS011;3613;48.902;9.204;2023-01-09T11:06:39;5.67;;;1.30;;
7142;SDS011;3613;48.902;9.204;2023-01-09T11:09:09;3.47;;;1.33;;
7142;SDS011;3613;48.902;9.204;2023-01-09T11:11:36;1.97;;;0.93;;
7142;SDS011;3613;48.902;9.204;2023-01-09T11:16:59;4.20;;;1.40;;
7142;SDS011;3613;48.902;9.204;2023-01-09T11:19:29;2.97;;;1.13;;
7142;SDS011;3613;48.902;9.204;2023-01-09T11:22:18;3.27;;;1.30;;
7142;SDS011;3613;48.902;9.204;2023-01-09T11:24:43;4.07;;;1.30;;
7142;SDS011;3613;48.902;9.204;2023-01-09T11:27:23;4.47;;;1.67;;
7142;SDS011;3613;48.902;9.204;2023-01-09T11:32:33;6.13;;;1.40;;
7142;SDS011;3613;48.902;9.204;2023-01-09T11:35:05;2.80;;;1.33;;
7142;SDS011;3613;48.902;9.204;2023-01-09T11:37:39;5.27;;;1.30;;
7142;SDS011;3613;48.902;9.204;2023-01-09T11:40:14;4.70;;;1.67;;
7142;SDS011;3613;48.902;9.204;2023-01-09T11:42:59;4.53;;;1.63;;
7142;SDS011;3613;48.902;9.204;2023-01-09T11:45:52;3.03;;;1.30;;
7142;SDS011;3613;48.902;9.204;2023-01-09T11:48:27;5.47;;;1.40;;
7142;SDS011;3613;48.902;9.204;2023-01-09T11:50:57;2.03;;;1.30;;
7142;SDS011;3613;48.902;9.204;2023-01-09T11:53:27;4.83;;;1.33;;
7142;SDS011;3613;48.902;9.204;2023-01-09T11:55:57;2.13;;;1.10;;
7142;SDS011;3613;48.902;9.204;2023-01-09T11:58:28;3.90;;;1.40;;
7142;SDS011;3613;48.902;9.204;2023-01-09T12:09:05;2.53;;;1.23;;
7142;SDS011;3613;48.902;9.204;2023-01-09T12:11:49;5.03;;;1.40;;
7142;SDS011;3613;48.902;9.204;2023-01-09T12:20:02;4.47;;;1.53;;
7142;SDS011;3613;48.902;9.204;2023-01-09T12:23:16;5.83;;;1.53;;
7142;SDS011;3613;48.902;9.204;2023-01-09T12:28:18;3.70;;;1.13;;
7142;SDS011;3613;48.902;9.204;2023-01-09T12:31:19;2.27;;;1.40;;
7142;SDS011;3613;48.902;9.204;2023-01-09T12:37:34;6.00;;;1.60;;
7142;SDS011;3613;48.902;9.204;2023-01-09T12:42:51;2.43;;;1.20;;
7142;SDS011;3613;48.902;9.204;2023-01-09T12:45:38;2.20;;;1.30;;
7142;SDS011;3613;48.902;9.204;2023-01-09T12:51:08;3.17;;;1.43;;
7142;SDS011;3613;48.902;9.204;2023-01-09T12:56:46;3.47;;;1.47;;
7142;SDS011;3613;48.902;9.204;2023-01-09T13:02:15;3.63;;;1.40;;
7142;SDS011;3613;48.902;9.204;2023-01-09T13:05:12;3.23;;;1.40;;
7142;SDS011;3613;48.902;9.204;2023-01-09T13:13:01;4.33;;;1.50;;
7142;SDS011;3613;48.902;9.204;2023-01-09T13:15:33;2.90;;;1.40;;
7142;SDS011;3613;48.902;9.204;2023-01-09T13:20:44;3.93;;;1.50;;
7142;SDS011;3613;48.902;9.204;2023-01-09T13:25:59;3.23;;;1.47;;
7142;SDS011;3613;48.902;9.204;2023-01-09T13:34:31;4.13;;;1.50;;
7142;SDS011;3613;48.902;9.204;2023-01-09T13:36:59;1.33;;;1.20;;
7142;SDS011;3613;48.902;9.204;2023-01-09T13:39:28;3.60;;;1.20;;
7142;SDS011;3613;48.902;9.204;2023-01-09T13:41:57;2.27;;;1.40;;
7142;SDS011;3613;48.902;9.204;2023-01-09T13:44:44;3.03;;;1.33;;
7142;SDS011;3613;48.902;9.204;2023-01-09T13:52:33;4.57;;;1.30;;
7142;SDS011;3613;48.902;9.204;2023-01-09T14:08:00;1.37;;;1.20;;
7142;SDS011;3613;48.902;9.204;2023-01-09T14:10:45;2.27;;;1.10;;
7142;SDS011;3613;48.902;9.204;2023-01-09T14:13:12;2.63;;;1.33;;
7142;SDS011;3613;48.902;9.204;2023-01-09T14:15:39;1.33;;;1.10;;
7142;SDS011;3613;48.902;9.204;2023-01-09T14:18:21;3.17;;;1.60;;
7142;SDS011;3613;48.902;9.204;2023-01-09T14:25:59;1.03;;;1.03;;
7142;SDS011;3613;48.902;9.204;2023-01-09T14:28:27;5.07;;;1.50;;
7142;SDS011;3613;48.902;9.204;2023-01-09T14:33:29;2.33;;;1.23;;
7142;SDS011;3613;48.902;9.204;2023-01-09T14:38:58;1.97;;;1.13;;
7142;SDS011;3613;48.902;9.204;2023-01-09T14:41:35;3.43;;;1.50;;
7142;SDS011;3613;48.902;9.204;2023-01-09T14:47:05;2.30;;;1.00;;
7142;SDS011;3613;48.902;9.204;2023-01-09T14:49:55;2.73;;;1.20;;
7142;SDS011;3613;48.902;9.204;2023-01-09T14:54:51;3.43;;;1.40;;
7142;SDS011;3613;48.902;9.204;2023-01-09T14:57:24;2.97;;;1.27;;
7142;SDS011;3613;48.902;9.204;2023-01-09T14:59:54;2.70;;;1.40;;
7142;SDS011;3613;48.902;9.204;2023-01-09T15:02:20;1.20;;;1.10;;
7142;SDS011;3613;48.902;9.204;2023-01-09T15:04:46;1.30;;;1.20;;
7142;SDS011;3613;48.902;9.204;2023-01-09T15:07:21;1.80;;;1.20;;
7142;SDS011;3613;48.902;9.204;2023-01-09T15:09:57;2.10;;;1.17;;
7142;SDS011;3613;48.902;9.204;2023-01-09T15:12:26;2.47;;;1.40;;
7142;SDS011;3613;48.902;9.204;2023-01-09T15:14:53;1.47;;;1.33;;
7142;SDS011;3613;48.902;9.204;2023-01-09T15:17:26;2.73;;;1.50;;
7142;SDS011;3613;48.902;9.204;2023-01-09T15:20:00;2.17;;;1.30;;
7142;SDS011;3613;48.902;9.204;2023-01-09T15:22:30;3.67;;;1.83;;
7142;SDS011;3613;48.902;9.204;2023-01-09T15:24:57;1.90;;;1.60;;
7142;SDS011;3613;48.902;9.204;2023-01-09T15:27:45;2.50;;;1.20;;
7142;SDS011;3613;48.902;9.204;2023-01-09T15:30:15;2.27;;;1.33;;
7142;SDS011;3613;48.902;9.204;2023-01-09T15:32:47;1.07;;;1.07;;
7142;SDS011;3613;48.902;9.204;2023-01-09T15:35:17;2.47;;;1.30;;
7142;SDS011;3613;48.902;9.204;2023-01-09T15:37:44;2.07;;;1.00;;
7142;SDS011;3613;48.902;9.204;2023-01-09T15:40:17;1.33;;;1.20;;
7142;SDS011;3613;48.902;9.204;2023-01-09T15:42:50;1.80;;;1.00;;
7142;SDS011;3613;48.902;9.204;2023-01-09T15:51:03;1.27;;;1.17;;
7142;SDS011;3613;48.902;9.204;2023-01-09T15:53:40;1.00;;;1.00;;
7142;SDS011;3613;48.902;9.204;2023-01-09T15:56:17;3.00;;;2.10;;
7142;SDS011;3613;48.902;9.204;2023-01-09T15:58:53;2.07;;;1.70;;
7142;SDS011;3613;48.902;9.204;2023-01-09T16:01:24;1.63;;;1.23;;
7142;SDS011;3613;48.902;9.204;2023-01-09T16:03:55;2.00;;;1.30;;
7142;SDS011;3613;48.902;9.204;2023-01-09T16:06:29;1.10;;;1.00;;
7142;SDS011;3613;48.902;9.204;2023-01-09T16:08:57;1.27;;;1.10;;
7142;SDS011;3613;48.902;9.204;2023-01-09T16:13:57;1.90;;;1.70;;
7142;SDS011;3613;48.902;9.204;2023-01-09T16:16:33;2.67;;;1.37;;
7142;SDS011;3613;48.902;9.204;2023-01-09T16:19:02;1.70;;;1.33;;
7142;SDS011;3613;48.902;9.204;2023-01-09T16:24:00;1.50;;;1.40;;
7142;SDS011;3613;48.902;9.204;2023-01-09T16:26:30;1.63;;;1.30;;
7142;SDS011;3613;48.902;9.204;2023-01-09T16:29:07;2.80;;;1.43;;
7142;SDS011;3613;48.902;9.204;2023-01-09T16:31:59;5.23;;;1.70;;
7142;SDS011;3613;48.902;9.204;2023-01-09T16:34:29;3.00;;;1.27;;
7142;SDS011;3613;48.902;9.204;2023-01-09T16:36:57;2.97;;;1.70;;
7142;SDS011;3613;48.902;9.204;2023-01-09T16:39:23;3.30;;;1.73;;
7142;SDS011;3613;48.902;9.204;2023-01-09T16:41:49;4.83;;;2.07;;
7142;SDS011;3613;48.902;9.204;2023-01-09T16:44:36;2.00;;;1.33;;
7142;SDS011;3613;48.902;9.204;2023-01-09T16:47:01;1.50;;;1.40;;
7142;SDS011;3613;48.902;9.204;2023-01-09T16:49:27;3.40;;;1.40;;
7142;SDS011;3613;48.902;9.204;2023-01-09T16:51:53;4.30;;;1.83;;
7142;SDS011;3613;48.902;9.204;2023-01-09T16:54:20;2.57;;;1.70;;
7142;SDS011;3613;48.902;9.204;2023-01-09T16:56:46;4.37;;;2.00;;
7142;SDS011;3613;48.902;9.204;2023-01-09T16:59:22;2.97;;;1.70;;
7142;SDS011;3613;48.902;9.204;2023-01-09T17:01:52;4.33;;;1.80;;
7142;SDS011;3613;48.902;9.204;2023-01-09T17:04:20;2.80;;;1.63;;
7142;SDS011;3613;48.902;9.204;2023-01-09T17:06:48;3.67;;;1.90;;
7142;SDS011;3613;48.902;9.204;2023-01-09T17:09:17;2.63;;;1.73;;
7142;SDS011;3613;48.902;9.204;2023-01-09T17:11:49;2.53;;;1.40;;
7142;SDS011;3613;48.902;9.204;2023-01-09T17:14:15;1.80;;;1.40;;
7142;SDS011;3613;48.902;9.204;2023-01-09T17:16:41;2.93;;;1.50;;
7142;SDS011;3613;48.902;9.204;2023-01-09T17:19:12;4.30;;;1.87;;
7142;SDS011;3613;48.902;9.204;2023-01-09T17:21:43;3.57;;;1.83;;
7142;SDS011;3613;48.902;9.204;2023-01-09T17:24:11;4.37;;;2.07;;
7142;SDS011;3613;48.902;9.204;2023-01-09T17:26:58;4.50;;;2.20;;
7142;SDS011;3613;48.902;9.204;2023-01-09T17:29:44;2.57;;;1.70;;
7142;SDS011;3613;48.902;9.204;2023-01-09T17:32:13;3.33;;;1.90;;
7142;SDS011;3613;48.902;9.204;2023-01-09T17:34:43;4.57;;;2.40;;
7142;SDS011;3613;48.902;9.204;2023-01-09T17:37:17;6.20;;;1.83;;
7142;SDS011;3613;48.902;9.204;2023-01-09T17:39:44;4.27;;;1.73;;
7142;SDS011;3613;48.902;9.204;2023-01-09T17:42:12;2.07;;;1.37;;
7142;SDS011;3613;48.902;9.204;2023-01-09T17:44:39;2.90;;;1.90;;
7142;SDS011;3613;48.902;9.204;2023-01-09T17:47:05;2.47;;;1.40;;
7142;SDS011;3613;48.902;9.204;2023-01-09T17:49:38;2.90;;;1.50;;
7142;SDS011;3613;48.902;9.204;2023-01-09T17:52:05;2.77;;;1.50;;
7142;SDS011;3613;48.902;9.204;2023-01-09T17:54:31;2.10;;;1.53;;
7142;SDS011;3613;48.902;9.204;2023-01-09T17:56:57;4.07;;;1.90;;
7142;SDS011;3613;48.902;9.204;2023-01-09T17:59:24;3.77;;;1.70;;
7142;SDS011;3613;48.902;9.204;2023-01-09T18:01:52;5.30;;;2.00;;
7142;SDS011;3613;48.902;9.204;2023-01-09T18:04:18;3.07;;;2.13;;
7142;SDS011;3613;48.902;9.204;2023-01-09T18:06:43;3.60;;;2.10;;
7142;SDS011;3613;48.902;9.204;2023-01-09T18:09:14;2.10;;;1.77;;
7142;SDS011;3613;48.902;9.204;2023-01-09T18:11:42;3.00;;;2.00;;
7142;SDS011;3613;48.902;9.204;2023-01-09T18:14:08;2.83;;;1.63;;
7142;SDS011;3613;48.902;9.204;2023-01-09T18:16:37;4.30;;;1.90;;
7142;SDS011;3613;48.902;9.204;2023-01-09T18:19:02;3.60;;;1.87;;